sensor_id;sensor_type;location;lat;lon;timestamp;temperature;humidity
66330;DHT22;53134;51.114;6.934;2022-07-25T00:00:22;26.00;53.10
66330;DHT22;53134;51.114;6.934;2022-07-25T00:00:53;26.00;53.00
66330;DHT22;53134;51.114;6.934;2022-07-25T00:01:23;26.00;53.00
66330;DHT22;53134;51.114;6.934;2022-07-25T00:01:54;26.00;53.00
66330;DHT22;53134;51.114;6.934;2022-07-25T00:02:25;26.00;52.80
66330;DHT22;53134;51.114;6.934;2022-07-25T00:02:55;26.00;52.90
66330;DHT22;53134;51.114;6.934;2022-07-25T00:03:26;26.00;52.90
66330;DHT22;53134;51.114;6.934;2022-07-25T00:03:56;26.00;52.80
66330;DHT22;53134;51.114;6.934;2022-07-25T00:04:27;26.00;52.80
66330;DHT22;53134;51.114;6.934;2022-07-25T00:04:57;26.00;52.90
66330;DHT22;53134;51.114;6.934;2022-07-25T00:05:28;26.00;52.80
66330;DHT22;53134;51.114;6.934;2022-07-25T00:05:58;26.00;52.90
66330;DHT22;53134;51.114;6.934;2022-07-25T00:06:29;26.00;53.00
66330;DHT22;53134;51.114;6.934;2022-07-25T00:06:59;26.00;52.90
66330;DHT22;53134;51.114;6.934;2022-07-25T00:07:30;26.00;52.80
66330;DHT22;53134;51.114;6.934;2022-07-25T00:08:00;26.00;52.90
66330;DHT22;53134;51.114;6.934;2022-07-25T00:08:31;26.00;52.90
66330;DHT22;53134;51.114;6.934;2022-07-25T00:09:01;26.00;52.80
66330;DHT22;53134;51.114;6.934;2022-07-25T00:09:32;26.00;52.80
66330;DHT22;53134;51.114;6.934;2022-07-25T00:10:03;26.00;52.80
66330;DHT22;53134;51.114;6.934;2022-07-25T00:10:34;26.00;52.80
66330;DHT22;53134;51.114;6.934;2022-07-25T00:11:04;26.00;52.80
66330;DHT22;53134;51.114;6.934;2022-07-25T00:11:35;26.00;52.70
66330;DHT22;53134;51.114;6.934;2022-07-25T00:12:05;26.00;52.70
66330;DHT22;53134;51.114;6.934;2022-07-25T00:12:36;26.00;52.70
66330;DHT22;53134;51.114;6.934;2022-07-25T00:13:06;26.00;52.80
66330;DHT22;53134;51.114;6.934;2022-07-25T00:13:37;26.00;52.70
66330;DHT22;53134;51.114;6.934;2022-07-25T00:14:07;26.00;52.70
66330;DHT22;53134;51.114;6.934;2022-07-25T00:14:38;26.00;52.60
66330;DHT22;53134;51.114;6.934;2022-07-25T00:15:09;26.00;52.60
66330;DHT22;53134;51.114;6.934;2022-07-25T00:15:39;26.00;52.60
66330;DHT22;53134;51.114;6.934;2022-07-25T00:16:10;26.00;52.60
66330;DHT22;53134;51.114;6.934;2022-07-25T00:16:40;26.00;52.60
66330;DHT22;53134;51.114;6.934;2022-07-25T00:17:11;26.00;52.70
66330;DHT22;53134;51.114;6.934;2022-07-25T00:17:41;26.00;52.60
66330;DHT22;53134;51.114;6.934;2022-07-25T00:18:12;26.00;52.70
66330;DHT22;53134;51.114;6.934;2022-07-25T00:18:42;26.00;52.60
66330;DHT22;53134;51.114;6.934;2022-07-25T00:19:13;26.00;52.70
66330;DHT22;53134;51.114;6.934;2022-07-25T00:19:43;26.00;52.60
66330;DHT22;53134;51.114;6.934;2022-07-25T00:20:14;26.00;52.60
66330;DHT22;53134;51.114;6.934;2022-07-25T00:20:45;26.00;52.50
66330;DHT22;53134;51.114;6.934;2022-07-25T00:21:15;26.00;52.60
66330;DHT22;53134;51.114;6.934;2022-07-25T00:21:46;26.00;52.40
66330;DHT22;53134;51.114;6.934;2022-07-25T00:22:16;26.00;52.40
66330;DHT22;53134;51.114;6.934;2022-07-25T00:22:47;25.90;52.30
66330;DHT22;53134;51.114;6.934;2022-07-25T00:23:17;26.00;52.40
66330;DHT22;53134;51.114;6.934;2022-07-25T00:23:49;26.00;52.40
66330;DHT22;53134;51.114;6.934;2022-07-25T00:24:19;26.00;52.30
66330;DHT22;53134;51.114;6.934;2022-07-25T00:24:50;25.90;52.20
66330;DHT22;53134;51.114;6.934;2022-07-25T00:25:20;26.00;52.30
66330;DHT22;53134;51.114;6.934;2022-07-25T00:25:51;25.90;52.20
66330;DHT22;53134;51.114;6.934;2022-07-25T00:26:21;26.00;52.20
66330;DHT22;53134;51.114;6.934;2022-07-25T00:26:52;25.90;52.10
66330;DHT22;53134;51.114;6.934;2022-07-25T00:27:22;26.00;52.30
66330;DHT22;53134;51.114;6.934;2022-07-25T00:27:53;26.00;52.20
66330;DHT22;53134;51.114;6.934;2022-07-25T00:28:23;26.00;52.20
66330;DHT22;53134;51.114;6.934;2022-07-25T00:28:53;25.90;52.80
66330;DHT22;53134;51.114;6.934;2022-07-25T00:29:24;25.90;52.20
66330;DHT22;53134;51.114;6.934;2022-07-25T00:29:54;26.00;52.90
66330;DHT22;53134;51.114;6.934;2022-07-25T00:30:25;26.00;52.30
66330;DHT22;53134;51.114;6.934;2022-07-25T00:30:56;26.00;52.20
66330;DHT22;53134;51.114;6.934;2022-07-25T00:31:27;25.90;52.10
66330;DHT22;53134;51.114;6.934;2022-07-25T00:31:57;25.90;52.10
66330;DHT22;53134;51.114;6.934;2022-07-25T00:32:28;26.00;52.20
66330;DHT22;53134;51.114;6.934;2022-07-25T00:32:58;25.90;52.00
66330;DHT22;53134;51.114;6.934;2022-07-25T00:33:29;25.90;52.10
66330;DHT22;53134;51.114;6.934;2022-07-25T00:33:59;25.90;52.00
66330;DHT22;53134;51.114;6.934;2022-07-25T00:34:30;26.00;52.00
66330;DHT22;53134;51.114;6.934;2022-07-25T00:35:00;26.00;52.00
66330;DHT22;53134;51.114;6.934;2022-07-25T00:35:30;25.90;51.90
66330;DHT22;53134;51.114;6.934;2022-07-25T00:36:01;25.90;51.90
66330;DHT22;53134;51.114;6.934;2022-07-25T00:36:31;25.90;51.90
66330;DHT22;53134;51.114;6.934;2022-07-25T00:37:02;26.00;51.90
66330;DHT22;53134;51.114;6.934;2022-07-25T00:37:32;26.00;51.90
66330;DHT22;53134;51.114;6.934;2022-07-25T00:38:03;26.00;52.00
66330;DHT22;53134;51.114;6.934;2022-07-25T00:38:33;26.00;52.10
66330;DHT22;53134;51.114;6.934;2022-07-25T00:39:04;25.90;51.70
66330;DHT22;53134;51.114;6.934;2022-07-25T00:39:34;25.90;51.80
66330;DHT22;53134;51.114;6.934;2022-07-25T00:40:05;25.90;51.90
66330;DHT22;53134;51.114;6.934;2022-07-25T00:40:36;25.90;51.70
66330;DHT22;53134;51.114;6.934;2022-07-25T00:41:06;25.90;51.80
66330;DHT22;53134;51.114;6.934;2022-07-25T00:41:37;25.90;51.60
66330;DHT22;53134;51.114;6.934;2022-07-25T00:42:07;26.00;51.80
66330;DHT22;53134;51.114;6.934;2022-07-25T00:42:38;25.90;51.60
66330;DHT22;53134;51.114;6.934;2022-07-25T00:43:08;25.90;51.50
66330;DHT22;53134;51.114;6.934;2022-07-25T00:43:42;25.90;51.60
66330;DHT22;53134;51.114;6.934;2022-07-25T00:44:23;25.90;51.60
66330;DHT22;53134;51.114;6.934;2022-07-25T00:44:53;26.00;51.80
66330;DHT22;53134;51.114;6.934;2022-07-25T00:45:24;25.90;51.50
66330;DHT22;53134;51.114;6.934;2022-07-25T00:45:55;26.00;51.60
66330;DHT22;53134;51.114;6.934;2022-07-25T00:46:27;25.90;51.40
66330;DHT22;53134;51.114;6.934;2022-07-25T00:46:58;25.90;51.50
66330;DHT22;53134;51.114;6.934;2022-07-25T00:47:28;26.00;51.70
66330;DHT22;53134;51.114;6.934;2022-07-25T00:47:59;25.90;51.40
66330;DHT22;53134;51.114;6.934;2022-07-25T00:48:29;26.00;51.60
66330;DHT22;53134;51.114;6.934;2022-07-25T00:49:00;25.90;51.50
66330;DHT22;53134;51.114;6.934;2022-07-25T00:49:30;25.90;51.40
66330;DHT22;53134;51.114;6.934;2022-07-25T00:50:01;25.90;51.50
66330;DHT22;53134;51.114;6.934;2022-07-25T00:50:31;25.90;51.30
66330;DHT22;53134;51.114;6.934;2022-07-25T00:51:02;26.00;51.50
66330;DHT22;53134;51.114;6.934;2022-07-25T00:51:32;25.90;51.30
66330;DHT22;53134;51.114;6.934;2022-07-25T00:52:03;25.90;52.10
66330;DHT22;53134;51.114;6.934;2022-07-25T00:52:34;25.90;51.20
66330;DHT22;53134;51.114;6.934;2022-07-25T00:53:04;26.00;51.40
66330;DHT22;53134;51.114;6.934;2022-07-25T00:53:35;25.90;51.20
66330;DHT22;53134;51.114;6.934;2022-07-25T00:54:06;25.90;51.30
66330;DHT22;53134;51.114;6.934;2022-07-25T00:54:36;25.90;51.20
66330;DHT22;53134;51.114;6.934;2022-07-25T00:55:07;25.90;51.30
66330;DHT22;53134;51.114;6.934;2022-07-25T00:55:37;25.90;51.20
66330;DHT22;53134;51.114;6.934;2022-07-25T00:56:08;25.90;51.10
66330;DHT22;53134;51.114;6.934;2022-07-25T00:56:38;25.90;51.20
66330;DHT22;53134;51.114;6.934;2022-07-25T00:57:09;25.90;51.30
66330;DHT22;53134;51.114;6.934;2022-07-25T00:57:40;25.90;51.20
66330;DHT22;53134;51.114;6.934;2022-07-25T00:58:10;25.90;51.20
66330;DHT22;53134;51.114;6.934;2022-07-25T00:58:42;25.90;51.20
66330;DHT22;53134;51.114;6.934;2022-07-25T00:59:12;25.90;51.20
66330;DHT22;53134;51.114;6.934;2022-07-25T00:59:43;25.90;51.20
66330;DHT22;53134;51.114;6.934;2022-07-25T01:00:15;25.90;51.20
66330;DHT22;53134;51.114;6.934;2022-07-25T01:00:46;25.90;51.20
66330;DHT22;53134;51.114;6.934;2022-07-25T01:01:16;25.90;51.20
66330;DHT22;53134;51.114;6.934;2022-07-25T01:01:47;25.90;51.20
66330;DHT22;53134;51.114;6.934;2022-07-25T01:02:17;25.90;51.20
66330;DHT22;53134;51.114;6.934;2022-07-25T01:02:48;25.90;51.20
66330;DHT22;53134;51.114;6.934;2022-07-25T01:03:18;25.90;51.90
66330;DHT22;53134;51.114;6.934;2022-07-25T01:03:48;25.90;51.20
66330;DHT22;53134;51.114;6.934;2022-07-25T01:04:19;25.90;52.00
66330;DHT22;53134;51.114;6.934;2022-07-25T01:04:50;25.90;51.20
66330;DHT22;53134;51.114;6.934;2022-07-25T01:05:20;25.90;51.20
66330;DHT22;53134;51.114;6.934;2022-07-25T01:05:51;25.90;51.20
66330;DHT22;53134;51.114;6.934;2022-07-25T01:06:21;25.90;51.30
66330;DHT22;53134;51.114;6.934;2022-07-25T01:06:52;25.90;51.30
66330;DHT22;53134;51.114;6.934;2022-07-25T01:07:23;25.90;51.20
66330;DHT22;53134;51.114;6.934;2022-07-25T01:07:54;25.90;51.30
66330;DHT22;53134;51.114;6.934;2022-07-25T01:08:24;25.90;51.20
66330;DHT22;53134;51.114;6.934;2022-07-25T01:08:55;25.90;51.20
66330;DHT22;53134;51.114;6.934;2022-07-25T01:09:26;25.90;51.30
66330;DHT22;53134;51.114;6.934;2022-07-25T01:09:56;25.90;51.10
66330;DHT22;53134;51.114;6.934;2022-07-25T01:10:28;25.90;51.20
66330;DHT22;53134;51.114;6.934;2022-07-25T01:10:59;25.90;51.20
66330;DHT22;53134;51.114;6.934;2022-07-25T01:11:29;25.90;51.20
66330;DHT22;53134;51.114;6.934;2022-07-25T01:12:00;25.90;51.10
66330;DHT22;53134;51.114;6.934;2022-07-25T01:12:30;25.90;51.20
66330;DHT22;53134;51.114;6.934;2022-07-25T01:13:01;25.90;51.20
66330;DHT22;53134;51.114;6.934;2022-07-25T01:13:32;25.90;51.20
66330;DHT22;53134;51.114;6.934;2022-07-25T01:14:04;25.90;51.20
66330;DHT22;53134;51.114;6.934;2022-07-25T01:14:35;25.80;51.10
66330;DHT22;53134;51.114;6.934;2022-07-25T01:15:05;25.90;51.20
66330;DHT22;53134;51.114;6.934;2022-07-25T01:15:36;25.80;51.10
66330;DHT22;53134;51.114;6.934;2022-07-25T01:16:06;25.80;51.10
66330;DHT22;53134;51.114;6.934;2022-07-25T01:16:37;25.80;51.20
66330;DHT22;53134;51.114;6.934;2022-07-25T01:17:10;25.90;51.20
66330;DHT22;53134;51.114;6.934;2022-07-25T01:17:42;25.80;51.10
66330;DHT22;53134;51.114;6.934;2022-07-25T01:18:13;25.80;51.10
66330;DHT22;53134;51.114;6.934;2022-07-25T01:18:43;25.80;51.20
66330;DHT22;53134;51.114;6.934;2022-07-25T01:19:14;25.90;51.30
66330;DHT22;53134;51.114;6.934;2022-07-25T01:19:44;25.90;51.20
66330;DHT22;53134;51.114;6.934;2022-07-25T01:20:21;25.80;51.10
66330;DHT22;53134;51.114;6.934;2022-07-25T01:20:51;25.80;51.20
66330;DHT22;53134;51.114;6.934;2022-07-25T01:21:23;25.80;51.10
66330;DHT22;53134;51.114;6.934;2022-07-25T01:21:53;25.80;51.10
66330;DHT22;53134;51.114;6.934;2022-07-25T01:22:25;25.80;51.20
66330;DHT22;53134;51.114;6.934;2022-07-25T01:22:56;25.90;51.30
66330;DHT22;53134;51.114;6.934;2022-07-25T01:23:26;25.90;51.30
66330;DHT22;53134;51.114;6.934;2022-07-25T01:23:57;25.80;51.20
66330;DHT22;53134;51.114;6.934;2022-07-25T01:24:27;25.80;51.20
66330;DHT22;53134;51.114;6.934;2022-07-25T01:24:58;25.80;51.30
66330;DHT22;53134;51.114;6.934;2022-07-25T01:25:28;25.80;51.30
66330;DHT22;53134;51.114;6.934;2022-07-25T01:25:59;25.80;51.20
66330;DHT22;53134;51.114;6.934;2022-07-25T01:26:30;25.90;51.30
66330;DHT22;53134;51.114;6.934;2022-07-25T01:27:01;25.90;51.30
66330;DHT22;53134;51.114;6.934;2022-07-25T01:27:32;25.90;51.30
66330;DHT22;53134;51.114;6.934;2022-07-25T01:28:02;25.90;51.20
66330;DHT22;53134;51.114;6.934;2022-07-25T01:28:33;25.90;51.20
66330;DHT22;53134;51.114;6.934;2022-07-25T01:29:03;25.80;51.10
66330;DHT22;53134;51.114;6.934;2022-07-25T01:29:34;25.80;51.10
66330;DHT22;53134;51.114;6.934;2022-07-25T01:30:05;25.80;51.10
66330;DHT22;53134;51.114;6.934;2022-07-25T01:30:36;25.90;51.20
66330;DHT22;53134;51.114;6.934;2022-07-25T01:31:07;25.80;51.20
66330;DHT22;53134;51.114;6.934;2022-07-25T01:31:37;25.80;51.20
66330;DHT22;53134;51.114;6.934;2022-07-25T01:32:08;25.80;51.20
66330;DHT22;53134;51.114;6.934;2022-07-25T01:32:39;25.80;51.20
66330;DHT22;53134;51.114;6.934;2022-07-25T01:33:13;25.80;51.20
66330;DHT22;53134;51.114;6.934;2022-07-25T01:33:44;25.80;51.20
66330;DHT22;53134;51.114;6.934;2022-07-25T01:34:14;25.80;51.30
66330;DHT22;53134;51.114;6.934;2022-07-25T01:34:45;25.80;51.20
66330;DHT22;53134;51.114;6.934;2022-07-25T01:35:15;25.80;51.30
66330;DHT22;53134;51.114;6.934;2022-07-25T01:35:46;25.80;51.30
66330;DHT22;53134;51.114;6.934;2022-07-25T01:36:16;25.80;51.30
66330;DHT22;53134;51.114;6.934;2022-07-25T01:36:47;25.80;51.30
66330;DHT22;53134;51.114;6.934;2022-07-25T01:37:17;25.80;51.40
66330;DHT22;53134;51.114;6.934;2022-07-25T01:37:48;25.80;51.30
66330;DHT22;53134;51.114;6.934;2022-07-25T01:38:18;25.80;51.30
66330;DHT22;53134;51.114;6.934;2022-07-25T01:38:49;25.80;51.30
66330;DHT22;53134;51.114;6.934;2022-07-25T01:39:19;25.80;51.30
66330;DHT22;53134;51.114;6.934;2022-07-25T01:39:50;25.80;51.40
66330;DHT22;53134;51.114;6.934;2022-07-25T01:40:20;25.80;51.40
66330;DHT22;53134;51.114;6.934;2022-07-25T01:40:51;25.80;51.30
66330;DHT22;53134;51.114;6.934;2022-07-25T01:41:21;25.80;51.40
66330;DHT22;53134;51.114;6.934;2022-07-25T01:41:52;25.80;51.40
66330;DHT22;53134;51.114;6.934;2022-07-25T01:42:22;25.80;51.40
66330;DHT22;53134;51.114;6.934;2022-07-25T01:42:53;25.90;51.50
66330;DHT22;53134;51.114;6.934;2022-07-25T01:43:23;25.80;51.40
66330;DHT22;53134;51.114;6.934;2022-07-25T01:43:54;25.80;51.30
66330;DHT22;53134;51.114;6.934;2022-07-25T01:44:24;25.80;52.10
66330;DHT22;53134;51.114;6.934;2022-07-25T01:44:55;25.80;51.30
66330;DHT22;53134;51.114;6.934;2022-07-25T01:45:25;25.80;51.40
66330;DHT22;53134;51.114;6.934;2022-07-25T01:45:56;25.90;51.50
66330;DHT22;53134;51.114;6.934;2022-07-25T01:46:26;25.80;51.30
66330;DHT22;53134;51.114;6.934;2022-07-25T01:46:57;25.80;52.10
66330;DHT22;53134;51.114;6.934;2022-07-25T01:47:27;25.90;51.50
66330;DHT22;53134;51.114;6.934;2022-07-25T01:47:58;25.90;51.50
66330;DHT22;53134;51.114;6.934;2022-07-25T01:48:28;25.90;51.60
66330;DHT22;53134;51.114;6.934;2022-07-25T01:48:59;25.80;51.40
66330;DHT22;53134;51.114;6.934;2022-07-25T01:49:29;25.90;51.50
66330;DHT22;53134;51.114;6.934;2022-07-25T01:50:00;25.80;51.50
66330;DHT22;53134;51.114;6.934;2022-07-25T01:50:30;25.80;51.50
66330;DHT22;53134;51.114;6.934;2022-07-25T01:51:01;25.80;51.50
66330;DHT22;53134;51.114;6.934;2022-07-25T01:51:31;25.80;51.50
66330;DHT22;53134;51.114;6.934;2022-07-25T01:52:02;25.80;51.50
66330;DHT22;53134;51.114;6.934;2022-07-25T01:52:33;25.80;51.50
66330;DHT22;53134;51.114;6.934;2022-07-25T01:53:03;25.80;51.50
66330;DHT22;53134;51.114;6.934;2022-07-25T01:53:34;25.80;51.50
66330;DHT22;53134;51.114;6.934;2022-07-25T01:54:04;25.80;51.50
66330;DHT22;53134;51.114;6.934;2022-07-25T01:54:35;25.80;51.50
66330;DHT22;53134;51.114;6.934;2022-07-25T01:55:05;25.80;51.50
66330;DHT22;53134;51.114;6.934;2022-07-25T01:55:36;25.80;51.50
66330;DHT22;53134;51.114;6.934;2022-07-25T01:56:07;25.70;51.40
66330;DHT22;53134;51.114;6.934;2022-07-25T01:56:41;25.80;51.50
66330;DHT22;53134;51.114;6.934;2022-07-25T01:57:11;25.80;51.50
66330;DHT22;53134;51.114;6.934;2022-07-25T01:57:42;25.80;51.50
66330;DHT22;53134;51.114;6.934;2022-07-25T01:58:12;25.70;51.30
66330;DHT22;53134;51.114;6.934;2022-07-25T01:58:43;25.70;51.30
66330;DHT22;53134;51.114;6.934;2022-07-25T01:59:13;25.80;51.50
66330;DHT22;53134;51.114;6.934;2022-07-25T01:59:44;25.70;51.40
66330;DHT22;53134;51.114;6.934;2022-07-25T02:00:15;25.70;51.40
66330;DHT22;53134;51.114;6.934;2022-07-25T02:00:46;25.70;51.40
66330;DHT22;53134;51.114;6.934;2022-07-25T02:01:17;25.70;51.30
66330;DHT22;53134;51.114;6.934;2022-07-25T02:01:47;25.70;51.40
66330;DHT22;53134;51.114;6.934;2022-07-25T02:02:18;25.70;51.40
66330;DHT22;53134;51.114;6.934;2022-07-25T02:02:48;25.70;51.30
66330;DHT22;53134;51.114;6.934;2022-07-25T02:03:39;25.80;51.50
66330;DHT22;53134;51.114;6.934;2022-07-25T02:04:09;25.80;51.50
66330;DHT22;53134;51.114;6.934;2022-07-25T02:04:40;25.70;51.40
66330;DHT22;53134;51.114;6.934;2022-07-25T02:05:11;25.80;51.50
66330;DHT22;53134;51.114;6.934;2022-07-25T02:05:42;25.80;51.40
66330;DHT22;53134;51.114;6.934;2022-07-25T02:06:12;25.80;51.40
66330;DHT22;53134;51.114;6.934;2022-07-25T02:06:43;25.80;51.50
66330;DHT22;53134;51.114;6.934;2022-07-25T02:07:13;25.80;51.40
66330;DHT22;53134;51.114;6.934;2022-07-25T02:07:44;25.80;51.30
66330;DHT22;53134;51.114;6.934;2022-07-25T02:08:14;25.80;51.40
66330;DHT22;53134;51.114;6.934;2022-07-25T02:08:45;25.80;51.30
66330;DHT22;53134;51.114;6.934;2022-07-25T02:09:15;25.80;51.30
66330;DHT22;53134;51.114;6.934;2022-07-25T02:09:46;25.80;51.30
66330;DHT22;53134;51.114;6.934;2022-07-25T02:10:16;25.80;51.20
66330;DHT22;53134;51.114;6.934;2022-07-25T02:10:47;25.80;51.20
66330;DHT22;53134;51.114;6.934;2022-07-25T02:11:18;25.80;51.20
66330;DHT22;53134;51.114;6.934;2022-07-25T02:11:48;25.80;51.30
66330;DHT22;53134;51.114;6.934;2022-07-25T02:12:19;25.80;51.30
66330;DHT22;53134;51.114;6.934;2022-07-25T02:12:49;25.70;51.20
66330;DHT22;53134;51.114;6.934;2022-07-25T02:13:20;25.80;51.30
66330;DHT22;53134;51.114;6.934;2022-07-25T02:13:51;25.80;51.30
66330;DHT22;53134;51.114;6.934;2022-07-25T02:14:21;25.80;51.30
66330;DHT22;53134;51.114;6.934;2022-07-25T02:14:52;25.70;51.20
66330;DHT22;53134;51.114;6.934;2022-07-25T02:15:22;25.80;51.30
66330;DHT22;53134;51.114;6.934;2022-07-25T02:15:53;25.80;51.40
66330;DHT22;53134;51.114;6.934;2022-07-25T02:16:23;25.70;51.30
66330;DHT22;53134;51.114;6.934;2022-07-25T02:16:54;25.80;51.30
66330;DHT22;53134;51.114;6.934;2022-07-25T02:17:24;25.80;51.40
66330;DHT22;53134;51.114;6.934;2022-07-25T02:17:55;25.80;51.30
66330;DHT22;53134;51.114;6.934;2022-07-25T02:18:25;25.80;51.30
66330;DHT22;53134;51.114;6.934;2022-07-25T02:18:56;25.80;51.30
66330;DHT22;53134;51.114;6.934;2022-07-25T02:19:26;25.80;51.30
66330;DHT22;53134;51.114;6.934;2022-07-25T02:19:57;25.80;51.30
66330;DHT22;53134;51.114;6.934;2022-07-25T02:20:27;25.80;51.30
66330;DHT22;53134;51.114;6.934;2022-07-25T02:20:58;25.80;51.30
66330;DHT22;53134;51.114;6.934;2022-07-25T02:21:28;25.80;51.30
66330;DHT22;53134;51.114;6.934;2022-07-25T02:21:59;25.80;51.30
66330;DHT22;53134;51.114;6.934;2022-07-25T02:22:29;25.80;51.20
66330;DHT22;53134;51.114;6.934;2022-07-25T02:23:00;25.80;51.20
66330;DHT22;53134;51.114;6.934;2022-07-25T02:23:32;25.80;51.20
66330;DHT22;53134;51.114;6.934;2022-07-25T02:24:02;25.80;51.20
66330;DHT22;53134;51.114;6.934;2022-07-25T02:24:33;25.80;51.20
66330;DHT22;53134;51.114;6.934;2022-07-25T02:25:03;25.80;51.30
66330;DHT22;53134;51.114;6.934;2022-07-25T02:25:34;25.80;51.30
66330;DHT22;53134;51.114;6.934;2022-07-25T02:26:04;25.80;51.30
66330;DHT22;53134;51.114;6.934;2022-07-25T02:26:35;25.80;51.30
66330;DHT22;53134;51.114;6.934;2022-07-25T02:27:05;25.80;51.40
66330;DHT22;53134;51.114;6.934;2022-07-25T02:27:36;25.70;51.30
66330;DHT22;53134;51.114;6.934;2022-07-25T02:28:07;25.70;51.30
66330;DHT22;53134;51.114;6.934;2022-07-25T02:28:37;25.70;51.30
66330;DHT22;53134;51.114;6.934;2022-07-25T02:29:08;25.70;51.30
66330;DHT22;53134;51.114;6.934;2022-07-25T02:29:38;25.70;51.40
66330;DHT22;53134;51.114;6.934;2022-07-25T02:30:09;25.70;51.40
66330;DHT22;53134;51.114;6.934;2022-07-25T02:30:42;25.70;51.30
66330;DHT22;53134;51.114;6.934;2022-07-25T02:31:12;25.70;51.40
66330;DHT22;53134;51.114;6.934;2022-07-25T02:31:43;25.70;51.40
66330;DHT22;53134;51.114;6.934;2022-07-25T02:32:13;25.70;51.40
66330;DHT22;53134;51.114;6.934;2022-07-25T02:32:44;25.70;51.40
66330;DHT22;53134;51.114;6.934;2022-07-25T02:33:14;25.70;51.40
66330;DHT22;53134;51.114;6.934;2022-07-25T02:33:45;25.70;51.40
66330;DHT22;53134;51.114;6.934;2022-07-25T02:34:15;25.70;51.40
66330;DHT22;53134;51.114;6.934;2022-07-25T02:34:46;25.70;51.50
66330;DHT22;53134;51.114;6.934;2022-07-25T02:35:16;25.70;51.40
66330;DHT22;53134;51.114;6.934;2022-07-25T02:35:47;25.70;51.40
66330;DHT22;53134;51.114;6.934;2022-07-25T02:36:17;25.70;52.10
66330;DHT22;53134;51.114;6.934;2022-07-25T02:36:48;25.70;51.50
66330;DHT22;53134;51.114;6.934;2022-07-25T02:37:18;25.70;51.40
66330;DHT22;53134;51.114;6.934;2022-07-25T02:37:49;25.70;51.40
66330;DHT22;53134;51.114;6.934;2022-07-25T02:38:19;25.70;51.40
66330;DHT22;53134;51.114;6.934;2022-07-25T02:38:50;25.70;51.40
66330;DHT22;53134;51.114;6.934;2022-07-25T02:39:20;25.70;51.50
66330;DHT22;53134;51.114;6.934;2022-07-25T02:39:51;25.70;51.40
66330;DHT22;53134;51.114;6.934;2022-07-25T02:40:21;25.70;51.40
66330;DHT22;53134;51.114;6.934;2022-07-25T02:40:52;25.70;51.40
66330;DHT22;53134;51.114;6.934;2022-07-25T02:41:22;25.70;51.50
66330;DHT22;53134;51.114;6.934;2022-07-25T02:41:53;25.70;51.50
66330;DHT22;53134;51.114;6.934;2022-07-25T02:42:23;25.70;51.50
66330;DHT22;53134;51.114;6.934;2022-07-25T02:42:54;25.70;51.50
66330;DHT22;53134;51.114;6.934;2022-07-25T02:43:24;25.70;51.50
66330;DHT22;53134;51.114;6.934;2022-07-25T02:43:55;25.70;51.50
66330;DHT22;53134;51.114;6.934;2022-07-25T02:44:25;25.70;51.50
66330;DHT22;53134;51.114;6.934;2022-07-25T02:44:56;25.70;51.50
66330;DHT22;53134;51.114;6.934;2022-07-25T02:45:26;25.70;51.50
66330;DHT22;53134;51.114;6.934;2022-07-25T02:45:57;25.70;51.50
66330;DHT22;53134;51.114;6.934;2022-07-25T02:46:27;25.70;51.40
66330;DHT22;53134;51.114;6.934;2022-07-25T02:46:58;25.70;51.50
66330;DHT22;53134;51.114;6.934;2022-07-25T02:47:28;25.70;51.40
66330;DHT22;53134;51.114;6.934;2022-07-25T02:47:59;25.70;51.40
66330;DHT22;53134;51.114;6.934;2022-07-25T02:48:29;25.70;51.50
66330;DHT22;53134;51.114;6.934;2022-07-25T02:49:00;25.70;52.20
66330;DHT22;53134;51.114;6.934;2022-07-25T02:49:30;25.70;51.50
66330;DHT22;53134;51.114;6.934;2022-07-25T02:50:01;25.70;52.20
66330;DHT22;53134;51.114;6.934;2022-07-25T02:50:31;25.70;51.50
66330;DHT22;53134;51.114;6.934;2022-07-25T02:51:02;25.70;51.50
66330;DHT22;53134;51.114;6.934;2022-07-25T02:51:32;25.70;51.50
66330;DHT22;53134;51.114;6.934;2022-07-25T02:52:03;25.70;51.60
66330;DHT22;53134;51.114;6.934;2022-07-25T02:52:33;25.70;51.50
66330;DHT22;53134;51.114;6.934;2022-07-25T02:53:04;25.70;51.50
66330;DHT22;53134;51.114;6.934;2022-07-25T02:53:34;25.70;51.60
66330;DHT22;53134;51.114;6.934;2022-07-25T02:54:05;25.70;51.60
66330;DHT22;53134;51.114;6.934;2022-07-25T02:54:35;25.70;51.50
66330;DHT22;53134;51.114;6.934;2022-07-25T02:55:06;25.70;51.40
66330;DHT22;53134;51.114;6.934;2022-07-25T02:55:36;25.70;51.50
66330;DHT22;53134;51.114;6.934;2022-07-25T02:56:07;25.70;51.60
66330;DHT22;53134;51.114;6.934;2022-07-25T02:56:37;25.70;51.50
66330;DHT22;53134;51.114;6.934;2022-07-25T02:57:08;25.70;51.50
66330;DHT22;53134;51.114;6.934;2022-07-25T02:57:38;25.70;51.50
66330;DHT22;53134;51.114;6.934;2022-07-25T02:58:09;25.70;51.50
66330;DHT22;53134;51.114;6.934;2022-07-25T02:58:40;25.70;51.50
66330;DHT22;53134;51.114;6.934;2022-07-25T02:59:10;25.70;51.50
66330;DHT22;53134;51.114;6.934;2022-07-25T02:59:41;25.70;51.50
66330;DHT22;53134;51.114;6.934;2022-07-25T03:00:12;25.70;51.50
66330;DHT22;53134;51.114;6.934;2022-07-25T03:00:43;25.70;51.50
66330;DHT22;53134;51.114;6.934;2022-07-25T03:01:13;25.70;51.50
66330;DHT22;53134;51.114;6.934;2022-07-25T03:01:44;25.70;51.50
66330;DHT22;53134;51.114;6.934;2022-07-25T03:02:14;25.70;51.50
66330;DHT22;53134;51.114;6.934;2022-07-25T03:02:45;25.70;51.60
66330;DHT22;53134;51.114;6.934;2022-07-25T03:03:15;25.60;51.60
66330;DHT22;53134;51.114;6.934;2022-07-25T03:03:46;25.60;51.50
66330;DHT22;53134;51.114;6.934;2022-07-25T03:04:16;25.60;51.50
66330;DHT22;53134;51.114;6.934;2022-07-25T03:04:47;25.60;51.50
66330;DHT22;53134;51.114;6.934;2022-07-25T03:05:17;25.70;51.60
66330;DHT22;53134;51.114;6.934;2022-07-25T03:05:48;25.60;51.50
66330;DHT22;53134;51.114;6.934;2022-07-25T03:06:19;25.60;51.60
66330;DHT22;53134;51.114;6.934;2022-07-25T03:06:49;25.60;51.60
66330;DHT22;53134;51.114;6.934;2022-07-25T03:07:19;25.60;51.50
66330;DHT22;53134;51.114;6.934;2022-07-25T03:07:50;25.70;51.60
66330;DHT22;53134;51.114;6.934;2022-07-25T03:08:20;25.60;51.50
66330;DHT22;53134;51.114;6.934;2022-07-25T03:08:51;25.60;51.50
66330;DHT22;53134;51.114;6.934;2022-07-25T03:09:21;25.60;51.50
66330;DHT22;53134;51.114;6.934;2022-07-25T03:09:52;25.60;51.40
66330;DHT22;53134;51.114;6.934;2022-07-25T03:10:22;25.60;51.50
66330;DHT22;53134;51.114;6.934;2022-07-25T03:10:53;25.70;51.70
66330;DHT22;53134;51.114;6.934;2022-07-25T03:11:23;25.60;51.60
66330;DHT22;53134;51.114;6.934;2022-07-25T03:11:54;25.60;51.50
66330;DHT22;53134;51.114;6.934;2022-07-25T03:12:24;25.60;51.60
66330;DHT22;53134;51.114;6.934;2022-07-25T03:12:55;25.60;51.50
66330;DHT22;53134;51.114;6.934;2022-07-25T03:13:25;25.60;51.60
66330;DHT22;53134;51.114;6.934;2022-07-25T03:13:56;25.60;51.60